sensor_id;sensor_type;location;lat;lon;timestamp;pressure;altitude;pressure_sealevel;temperature;humidity
62632;BME280;48703;51.248;-0.546;2023-10-13T00:02:40;100191;;;15.69;100.00
62632;BME280;48703;51.248;-0.546;2023-10-13T00:05:43;100181;;;15.68;100.00
62632;BME280;48703;51.248;-0.546;2023-10-13T00:08:44;100169;;;15.67;100.00
62632;BME280;48703;51.248;-0.546;2023-10-13T00:11:46;100165;;;15.67;100.00
62632;BME280;48703;51.248;-0.546;2023-10-13T00:14:48;100163;;;15.65;100.00
62632;BME280;48703;51.248;-0.546;2023-10-13T00:17:50;100160;;;15.65;100.00
62632;BME280;48703;51.248;-0.546;2023-10-13T00:20:52;100156;;;15.65;100.00
62632;BME280;48703;51.248;-0.546;2023-10-13T00:23:54;100155;;;15.64;100.00
62632;BME280;48703;51.248;-0.546;2023-10-13T00:26:56;100152;;;15.64;100.00
62632;BME280;48703;51.248;-0.546;2023-10-13T00:29:59;100146;;;15.64;100.00
62632;BME280;48703;51.248;-0.546;2023-10-13T00:33:00;100141;;;15.64;100.00
62632;BME280;48703;51.248;-0.546;2023-10-13T00:36:03;100126;;;15.64;100.00
62632;BME280;48703;51.248;-0.546;2023-10-13T00:39:05;100123;;;15.64;100.00
62632;BME280;48703;51.248;-0.546;2023-10-13T00:42:07;100114;;;15.65;100.00
62632;BME280;48703;51.248;-0.546;2023-10-13T00:45:09;100123;;;15.67;100.00
62632;BME280;48703;51.248;-0.546;2023-10-13T00:48:11;100111;;;15.68;100.00
62632;BME280;48703;51.248;-0.546;2023-10-13T00:51:13;100097;;;15.69;100.00
62632;BME280;48703;51.248;-0.546;2023-10-13T00:54:15;100102;;;15.71;100.00
62632;BME280;48703;51.248;-0.546;2023-10-13T00:57:17;100103;;;15.75;100.00
62632;BME280;48703;51.248;-0.546;2023-10-13T01:00:19;100095;;;15.80;100.00
62632;BME280;48703;51.248;-0.546;2023-10-13T01:03:21;100097;;;15.84;100.00
62632;BME280;48703;51.248;-0.546;2023-10-13T01:06:23;100087;;;15.87;100.00
62632;BME280;48703;51.248;-0.546;2023-10-13T01:09:25;100077;;;15.89;100.00
62632;BME280;48703;51.248;-0.546;2023-10-13T01:12:27;100077;;;15.91;100.00
62632;BME280;48703;51.248;-0.546;2023-10-13T01:15:29;100072;;;15.93;100.00
62632;BME280;48703;51.248;-0.546;2023-10-13T01:18:31;100063;;;15.92;100.00
62632;BME280;48703;51.248;-0.546;2023-10-13T01:21:33;100055;;;15.92;100.00
62632;BME280;48703;51.248;-0.546;2023-10-13T01:24:35;100049;;;15.90;100.00
62632;BME280;48703;51.248;-0.546;2023-10-13T01:27:38;100030;;;15.89;100.00
62632;BME280;48703;51.248;-0.546;2023-10-13T01:30:39;100019;;;15.87;100.00
62632;BME280;48703;51.248;-0.546;2023-10-13T01:33:42;100006;;;15.85;100.00
62632;BME280;48703;51.248;-0.546;2023-10-13T01:36:44;99992;;;15.82;100.00
62632;BME280;48703;51.248;-0.546;2023-10-13T01:39:46;99973;;;15.80;100.00
62632;BME280;48703;51.248;-0.546;2023-10-13T01:42:48;99963;;;15.77;100.00
62632;BME280;48703;51.248;-0.546;2023-10-13T01:45:50;99955;;;15.74;100.00
62632;BME280;48703;51.248;-0.546;2023-10-13T01:48:52;99955;;;15.72;100.00
62632;BME280;48703;51.248;-0.546;2023-10-13T01:51:54;99951;;;15.70;100.00
62632;BME280;48703;51.248;-0.546;2023-10-13T01:54:56;99953;;;15.67;100.00
62632;BME280;48703;51.248;-0.546;2023-10-13T01:57:58;99953;;;15.65;100.00
62632;BME280;48703;51.248;-0.546;2023-10-13T02:01:00;99952;;;15.62;100.00
62632;BME280;48703;51.248;-0.546;2023-10-13T02:04:02;99936;;;15.59;100.00
62632;BME280;48703;51.248;-0.546;2023-10-13T02:07:04;99926;;;15.57;100.00
62632;BME280;48703;51.248;-0.546;2023-10-13T02:10:06;99914;;;15.53;100.00
62632;BME280;48703;51.248;-0.546;2023-10-13T02:13:11;99905;;;15.50;100.00
62632;BME280;48703;51.248;-0.546;2023-10-13T02:16:10;99906;;;15.48;100.00
62632;BME280;48703;51.248;-0.546;2023-10-13T02:19:12;99904;;;15.47;100.00
62632;BME280;48703;51.248;-0.546;2023-10-13T02:22:15;99898;;;15.46;100.00
62632;BME280;48703;51.248;-0.546;2023-10-13T02:25:17;99887;;;15.44;100.00
62632;BME280;48703;51.248;-0.546;2023-10-13T02:28:19;99878;;;15.44;100.00
62632;BME280;48703;51.248;-0.546;2023-10-13T02:31:21;99870;;;15.44;100.00
62632;BME280;48703;51.248;-0.546;2023-10-13T02:34:23;99866;;;15.44;100.00
62632;BME280;48703;51.248;-0.546;2023-10-13T02:37:25;99855;;;15.44;100.00
62632;BME280;48703;51.248;-0.546;2023-10-13T02:40:27;99853;;;15.46;100.00
62632;BME280;48703;51.248;-0.546;2023-10-13T02:43:29;99845;;;15.47;100.00
62632;BME280;48703;51.248;-0.546;2023-10-13T02:46:31;99830;;;15.48;100.00
62632;BME280;48703;51.248;-0.546;2023-10-13T02:49:33;99819;;;15.50;100.00
62632;BME280;48703;51.248;-0.546;2023-10-13T02:52:35;99812;;;15.51;100.00
62632;BME280;48703;51.248;-0.546;2023-10-13T02:55:37;99809;;;15.53;100.00
62632;BME280;48703;51.248;-0.546;2023-10-13T02:58:40;99791;;;15.55;100.00
62632;BME280;48703;51.248;-0.546;2023-10-13T03:01:41;99796;;;15.57;100.00
62632;BME280;48703;51.248;-0.546;2023-10-13T03:04:44;99784;;;15.59;100.00
62632;BME280;48703;51.248;-0.546;2023-10-13T03:07:45;99776;;;15.62;100.00
62632;BME280;48703;51.248;-0.546;2023-10-13T03:10:47;99770;;;15.65;100.00
62632;BME280;48703;51.248;-0.546;2023-10-13T03:13:49;99765;;;15.68;100.00
62632;BME280;48703;51.248;-0.546;2023-10-13T03:16:51;99749;;;15.70;100.00
62632;BME280;48703;51.248;-0.546;2023-10-13T03:19:53;99746;;;15.72;100.00
62632;BME280;48703;51.248;-0.546;2023-10-13T03:22:55;99738;;;15.76;100.00
62632;BME280;48703;51.248;-0.546;2023-10-13T03:25:57;99725;;;15.79;100.00
62632;BME280;48703;51.248;-0.546;2023-10-13T03:29:00;99715;;;15.83;100.00
62632;BME280;48703;51.248;-0.546;2023-10-13T03:32:02;99704;;;15.86;100.00
62632;BME280;48703;51.248;-0.546;2023-10-13T03:35:04;99693;;;15.89;100.00
62632;BME280;48703;51.248;-0.546;2023-10-13T03:38:06;99681;;;15.92;100.00
62632;BME280;48703;51.248;-0.546;2023-10-13T03:41:08;99672;;;15.94;100.00
62632;BME280;48703;51.248;-0.546;2023-10-13T03:44:10;99671;;;15.96;100.00
62632;BME280;48703;51.248;-0.546;2023-10-13T03:47:12;99673;;;15.99;100.00
62632;BME280;48703;51.248;-0.546;2023-10-13T03:50:14;99670;;;16.01;100.00
62632;BME280;48703;51.248;-0.546;2023-10-13T03:53:16;99660;;;16.04;100.00
62632;BME280;48703;51.248;-0.546;2023-10-13T03:56:18;99655;;;16.07;100.00
62632;BME280;48703;51.248;-0.546;2023-10-13T03:59:20;99641;;;16.09;100.00
62632;BME280;48703;51.248;-0.546;2023-10-13T04:02:22;99634;;;16.12;100.00
62632;BME280;48703;51.248;-0.546;2023-10-13T04:05:24;99638;;;16.14;100.00
62632;BME280;48703;51.248;-0.546;2023-10-13T04:08:26;99635;;;16.16;100.00
62632;BME280;48703;51.248;-0.546;2023-10-13T04:11:28;99631;;;16.17;100.00
62632;BME280;48703;51.248;-0.546;2023-10-13T04:14:31;99632;;;16.20;100.00
62632;BME280;48703;51.248;-0.546;2023-10-13T04:17:32;99627;;;16.22;100.00
62632;BME280;48703;51.248;-0.546;2023-10-13T04:20:34;99628;;;16.24;100.00
62632;BME280;48703;51.248;-0.546;2023-10-13T04:23:36;99626;;;16.25;100.00
62632;BME280;48703;51.248;-0.546;2023-10-13T04:26:38;99618;;;16.27;100.00
62632;BME280;48703;51.248;-0.546;2023-10-13T04:29:41;99617;;;16.28;100.00
62632;BME280;48703;51.248;-0.546;2023-10-13T04:32:43;99612;;;16.29;100.00
62632;BME280;48703;51.248;-0.546;2023-10-13T04:35:45;99618;;;16.31;100.00
62632;BME280;48703;51.248;-0.546;2023-10-13T04:38:47;99611;;;16.32;100.00
62632;BME280;48703;51.248;-0.546;2023-10-13T04:41:49;99608;;;16.34;100.00
62632;BME280;48703;51.248;-0.546;2023-10-13T04:44:51;99599;;;16.36;100.00
62632;BME280;48703;51.248;-0.546;2023-10-13T04:47:53;99601;;;16.38;100.00
62632;BME280;48703;51.248;-0.546;2023-10-13T04:50:59;99593;;;16.41;100.00
62632;BME280;48703;51.248;-0.546;2023-10-13T04:53:57;99591;;;16.44;100.00
62632;BME280;48703;51.248;-0.546;2023-10-13T04:56:59;99594;;;16.45;100.00
62632;BME280;48703;51.248;-0.546;2023-10-13T05:00:03;99595;;;16.49;100.00
62632;BME280;48703;51.248;-0.546;2023-10-13T05:03:03;99587;;;16.51;100.00
62632;BME280;48703;51.248;-0.546;2023-10-13T05:06:05;99585;;;16.54;100.00
62632;BME280;48703;51.248;-0.546;2023-10-13T05:09:07;99576;;;16.57;100.00
62632;BME280;48703;51.248;-0.546;2023-10-13T05:12:09;99568;;;16.59;100.00
62632;BME280;48703;51.248;-0.546;2023-10-13T05:15:11;99561;;;16.62;100.00
62632;BME280;48703;51.248;-0.546;2023-10-13T05:18:13;99562;;;16.64;100.00
62632;BME280;48703;51.248;-0.546;2023-10-13T05:21:16;99568;;;16.67;100.00
62632;BME280;48703;51.248;-0.546;2023-10-13T05:24:18;99563;;;16.70;100.00
62632;BME280;48703;51.248;-0.546;2023-10-13T05:27:20;99560;;;16.73;100.00
62632;BME280;48703;51.248;-0.546;2023-10-13T05:30:22;99572;;;16.76;100.00
62632;BME280;48703;51.248;-0.546;2023-10-13T05:33:24;99565;;;16.78;100.00
62632;BME280;48703;51.248;-0.546;2023-10-13T05:36:26;99564;;;16.81;100.00
62632;BME280;48703;51.248;-0.546;2023-10-13T05:39:28;99562;;;16.84;100.00
62632;BME280;48703;51.248;-0.546;2023-10-13T05:42:30;99556;;;16.86;100.00
62632;BME280;48703;51.248;-0.546;2023-10-13T05:45:34;99550;;;16.89;100.00
62632;BME280;48703;51.248;-0.546;2023-10-13T05:48:34;99554;;;16.91;100.00
62632;BME280;48703;51.248;-0.546;2023-10-13T05:51:36;99540;;;16.95;100.00
62632;BME280;48703;51.248;-0.546;2023-10-13T05:54:38;99527;;;17.00;100.00
62632;BME280;48703;51.248;-0.546;2023-10-13T05:57:40;99529;;;17.04;100.00
62632;BME280;48703;51.248;-0.546;2023-10-13T06:00:42;99523;;;17.08;100.00
62632;BME280;48703;51.248;-0.546;2023-10-13T06:03:44;99513;;;17.12;100.00
62632;BME280;48703;51.248;-0.546;2023-10-13T06:06:46;99498;;;17.15;100.00
62632;BME280;48703;51.248;-0.546;2023-10-13T06:09:48;99499;;;17.17;100.00
62632;BME280;48703;51.248;-0.546;2023-10-13T06:12:50;99505;;;17.19;100.00
62632;BME280;48703;51.248;-0.546;2023-10-13T06:15:52;99507;;;17.22;100.00
62632;BME280;48703;51.248;-0.546;2023-10-13T06:18:55;99488;;;17.24;100.00
62632;BME280;48703;51.248;-0.546;2023-10-13T06:21:57;99491;;;17.26;100.00
62632;BME280;48703;51.248;-0.546;2023-10-13T06:24:59;99488;;;17.28;100.00
62632;BME280;48703;51.248;-0.546;2023-10-13T06:28:01;99491;;;17.31;100.00
62632;BME280;48703;51.248;-0.546;2023-10-13T06:31:03;99505;;;17.33;100.00
62632;BME280;48703;51.248;-0.546;2023-10-13T06:34:05;99514;;;17.34;100.00
62632;BME280;48703;51.248;-0.546;2023-10-13T06:37:07;99504;;;17.36;100.00
62632;BME280;48703;51.248;-0.546;2023-10-13T06:40:10;99505;;;17.36;100.00
62632;BME280;48703;51.248;-0.546;2023-10-13T06:43:11;99491;;;17.36;100.00
62632;BME280;48703;51.248;-0.546;2023-10-13T06:46:13;99491;;;17.34;100.00
62632;BME280;48703;51.248;-0.546;2023-10-13T06:49:15;99480;;;17.33;100.00
62632;BME280;48703;51.248;-0.546;2023-10-13T06:52:17;99475;;;17.33;100.00
62632;BME280;48703;51.248;-0.546;2023-10-13T06:55:19;99482;;;17.33;100.00
62632;BME280;48703;51.248;-0.546;2023-10-13T06:58:21;99481;;;17.33;100.00
62632;BME280;48703;51.248;-0.546;2023-10-13T07:01:23;99481;;;17.34;100.00
62632;BME280;48703;51.248;-0.546;2023-10-13T07:04:25;99479;;;17.34;100.00
62632;BME280;48703;51.248;-0.546;2023-10-13T07:07:27;99481;;;17.34;100.00
62632;BME280;48703;51.248;-0.546;2023-10-13T07:10:29;99483;;;17.35;100.00
62632;BME280;48703;51.248;-0.546;2023-10-13T07:13:32;99473;;;17.35;100.00
62632;BME280;48703;51.248;-0.546;2023-10-13T07:16:33;99470;;;17.35;100.00
62632;BME280;48703;51.248;-0.546;2023-10-13T07:19:35;99467;;;17.35;100.00
62632;BME280;48703;51.248;-0.546;2023-10-13T07:22:38;99462;;;17.35;100.00
62632;BME280;48703;51.248;-0.546;2023-10-13T07:25:40;99461;;;17.35;100.00
62632;BME280;48703;51.248;-0.546;2023-10-13T07:28:42;99472;;;17.34;100.00
62632;BME280;48703;51.248;-0.546;2023-10-13T07:31:44;99467;;;17.33;100.00
62632;BME280;48703;51.248;-0.546;2023-10-13T07:34:46;99473;;;17.33;100.00
62632;BME280;48703;51.248;-0.546;2023-10-13T07:37:48;99463;;;17.33;100.00
62632;BME280;48703;51.248;-0.546;2023-10-13T07:40:50;99456;;;17.33;100.00
62632;BME280;48703;51.248;-0.546;2023-10-13T07:43:52;99456;;;17.33;100.00
62632;BME280;48703;51.248;-0.546;2023-10-13T07:46:54;99453;;;17.34;100.00
62632;BME280;48703;51.248;-0.546;2023-10-13T07:49:56;99458;;;17.34;100.00
62632;BME280;48703;51.248;-0.546;2023-10-13T07:52:58;99465;;;17.33;100.00
62632;BME280;48703;51.248;-0.546;2023-10-13T07:56:00;99472;;;17.31;100.00
62632;BME280;48703;51.248;-0.546;2023-10-13T07:59:02;99463;;;17.29;100.00
62632;BME280;48703;51.248;-0.546;2023-10-13T08:02:05;99459;;;17.28;100.00
62632;BME280;48703;51.248;-0.546;2023-10-13T08:05:08;99453;;;17.27;100.00
62632;BME280;48703;51.248;-0.546;2023-10-13T08:08:08;99459;;;17.25;100.00
62632;BME280;48703;51.248;-0.546;2023-10-13T08:11:11;99460;;;17.24;100.00
62632;BME280;48703;51.248;-0.546;2023-10-13T08:14:13;99461;;;17.22;100.00
62632;BME280;48703;51.248;-0.546;2023-10-13T08:17:15;99470;;;17.20;100.00
62632;BME280;48703;51.248;-0.546;2023-10-13T08:20:17;99472;;;17.17;100.00
62632;BME280;48703;51.248;-0.546;2023-10-13T08:23:19;99467;;;17.15;100.00
62632;BME280;48703;51.248;-0.546;2023-10-13T08:26:21;99471;;;17.14;100.00
62632;BME280;48703;51.248;-0.546;2023-10-13T08:29:23;99474;;;17.13;100.00
62632;BME280;48703;51.248;-0.546;2023-10-13T08:32:25;99482;;;17.12;100.00
62632;BME280;48703;51.248;-0.546;2023-10-13T08:35:27;99483;;;17.10;100.00
62632;BME280;48703;51.248;-0.546;2023-10-13T08:38:29;99487;;;17.09;100.00
62632;BME280;48703;51.248;-0.546;2023-10-13T08:41:31;99477;;;17.07;100.00
62632;BME280;48703;51.248;-0.546;2023-10-13T08:44:33;99487;;;17.06;100.00
62632;BME280;48703;51.248;-0.546;2023-10-13T08:47:35;99484;;;17.05;100.00
62632;BME280;48703;51.248;-0.546;2023-10-13T08:50:38;99479;;;17.03;100.00
62632;BME280;48703;51.248;-0.546;2023-10-13T08:53:39;99481;;;17.02;100.00
62632;BME280;48703;51.248;-0.546;2023-10-13T08:56:41;99483;;;17.01;100.00
62632;BME280;48703;51.248;-0.546;2023-10-13T08:59:43;99474;;;17.01;100.00
62632;BME280;48703;51.248;-0.546;2023-10-13T09:02:45;99479;;;17.00;100.00
62632;BME280;48703;51.248;-0.546;2023-10-13T09:05:48;99478;;;16.99;100.00
62632;BME280;48703;51.248;-0.546;2023-10-13T09:08:50;99484;;;16.99;100.00
62632;BME280;48703;51.248;-0.546;2023-10-13T09:11:53;99488;;;17.00;100.00
62632;BME280;48703;51.248;-0.546;2023-10-13T09:14:54;99489;;;17.01;100.00
62632;BME280;48703;51.248;-0.546;2023-10-13T09:17:56;99483;;;17.02;100.00
62632;BME280;48703;51.248;-0.546;2023-10-13T09:20:59;99480;;;17.04;100.00
62632;BME280;48703;51.248;-0.546;2023-10-13T09:24:00;99474;;;17.06;100.00
62632;BME280;48703;51.248;-0.546;2023-10-13T09:27:02;99473;;;17.08;100.00
62632;BME280;48703;51.248;-0.546;2023-10-13T09:30:05;99480;;;17.09;100.00
62632;BME280;48703;51.248;-0.546;2023-10-13T09:33:06;99483;;;17.11;100.00
62632;BME280;48703;51.248;-0.546;2023-10-13T09:36:08;99480;;;17.12;100.00
62632;BME280;48703;51.248;-0.546;2023-10-13T09:39:10;99489;;;17.13;100.00
62632;BME280;48703;51.248;-0.546;2023-10-13T09:42:12;99494;;;17.14;100.00
62632;BME280;48703;51.248;-0.546;2023-10-13T09:45:14;99491;;;17.15;100.00
62632;BME280;48703;51.248;-0.546;2023-10-13T09:48:16;99480;;;17.17;100.00
62632;BME280;48703;51.248;-0.546;2023-10-13T09:51:18;99480;;;17.18;100.00
62632;BME280;48703;51.248;-0.546;2023-10-13T09:54:21;99485;;;17.19;100.00
62632;BME280;48703;51.248;-0.546;2023-10-13T09:57:22;99482;;;17.20;100.00
62632;BME280;48703;51.248;-0.546;2023-10-13T10:00:28;99484;;;17.22;100.00
62632;BME280;48703;51.248;-0.546;2023-10-13T10:03:27;99480;;;17.24;100.00
62632;BME280;48703;51.248;-0.546;2023-10-13T10:06:29;99473;;;17.25;100.00
62632;BME280;48703;51.248;-0.546;2023-10-13T10:09:32;99477;;;17.28;100.00
62632;BME280;48703;51.248;-0.546;2023-10-13T10:12:35;99484;;;17.29;100.00
62632;BME280;48703;51.248;-0.546;2023-10-13T10:15:35;99479;;;17.32;100.00
62632;BME280;48703;51.248;-0.546;2023-10-13T10:18:37;99485;;;17.34;100.00
62632;BME280;48703;51.248;-0.546;2023-10-13T10:21:39;99490;;;17.36;100.00
62632;BME280;48703;51.248;-0.546;2023-10-13T10:24:41;99494;;;17.38;100.00
62632;BME280;48703;51.248;-0.546;2023-10-13T10:27:43;99488;;;17.42;100.00
62632;BME280;48703;51.248;-0.546;2023-10-13T10:30:45;99492;;;17.45;100.00
62632;BME280;48703;51.248;-0.546;2023-10-13T10:33:47;99482;;;17.48;100.00
62632;BME280;48703;51.248;-0.546;2023-10-13T10:36:53;99475;;;17.52;100.00
62632;BME280;48703;51.248;-0.546;2023-10-13T10:39:51;99470;;;17.57;100.00
62632;BME280;48703;51.248;-0.546;2023-10-13T10:42:53;99473;;;17.60;100.00
62632;BME280;48703;51.248;-0.546;2023-10-13T10:45:56;99464;;;17.66;100.00
62632;BME280;48703;51.248;-0.546;2023-10-13T10:48:57;99459;;;17.73;100.00
62632;BME280;48703;51.248;-0.546;2023-10-13T10:52:00;99451;;;17.82;100.00
62632;BME280;48703;51.248;-0.546;2023-10-13T10:55:02;99452;;;17.87;100.00
62632;BME280;48703;51.248;-0.546;2023-10-13T10:58:04;99446;;;17.88;100.00
62632;BME280;48703;51.248;-0.546;2023-10-13T11:01:06;99448;;;17.90;100.00
62632;BME280;48703;51.248;-0.546;2023-10-13T11:04:08;99453;;;17.93;100.00
62632;BME280;48703;51.248;-0.546;2023-10-13T11:07:10;99454;;;17.98;100.00
62632;BME280;48703;51.248;-0.546;2023-10-13T11:10:12;99449;;;18.01;100.00
62632;BME280;48703;51.248;-0.546;2023-10-13T11:13:14;99448;;;18.07;100.00
62632;BME280;48703;51.248;-0.546;2023-10-13T11:16:19;99447;;;18.11;100.00
62632;BME280;48703;51.248;-0.546;2023-10-13T11:19:18;99446;;;18.15;100.00
62632;BME280;48703;51.248;-0.546;2023-10-13T11:22:20;99454;;;18.17;100.00
62632;BME280;48703;51.248;-0.546;2023-10-13T11:25:23;99453;;;18.18;100.00
62632;BME280;48703;51.248;-0.546;2023-10-13T11:28:24;99452;;;18.21;100.00
62632;BME280;48703;51.248;-0.546;2023-10-13T11:31:26;99455;;;18.26;100.00
62632;BME280;48703;51.248;-0.546;2023-10-13T11:34:28;99447;;;18.30;100.00
62632;BME280;48703;51.248;-0.546;2023-10-13T11:37:30;99447;;;18.33;100.00
62632;BME280;48703;51.248;-0.546;2023-10-13T11:40:32;99450;;;18.35;100.00
62632;BME280;48703;51.248;-0.546;2023-10-13T11:43:35;99456;;;18.37;100.00
62632;BME280;48703;51.248;-0.546;2023-10-13T11:46:36;99461;;;18.39;100.00
62632;BME280;48703;51.248;-0.546;2023-10-13T11:49:39;99455;;;18.35;100.00
62632;BME280;48703;51.248;-0.546;2023-10-13T11:52:41;99453;;;18.31;100.00
62632;BME280;48703;51.248;-0.546;2023-10-13T11:55:43;99457;;;18.31;100.00
62632;BME280;48703;51.248;-0.546;2023-10-13T11:58:45;99462;;;18.31;100.00
62632;BME280;48703;51.248;-0.546;2023-10-13T12:01:47;99469;;;18.30;100.00
62632;BME280;48703;51.248;-0.546;2023-10-13T12:04:49;99462;;;18.30;100.00
62632;BME280;48703;51.248;-0.546;2023-10-13T12:07:51;99454;;;18.34;100.00
62632;BME280;48703;51.248;-0.546;2023-10-13T12:10:53;99451;;;18.36;100.00
62632;BME280;48703;51.248;-0.546;2023-10-13T12:13:55;99458;;;18.38;100.00
62632;BME280;48703;51.248;-0.546;2023-10-13T12:16:57;99466;;;18.37;100.00
62632;BME280;48703;51.248;-0.546;2023-10-13T12:19:59;99471;;;18.36;100.00
62632;BME280;48703;51.248;-0.546;2023-10-13T12:23:01;99478;;;18.33;100.00
62632;BME280;48703;51.248;-0.546;2023-10-13T12:26:03;99480;;;18.29;100.00
62632;BME280;48703;51.248;-0.546;2023-10-13T12:29:05;99475;;;18.26;100.00
62632;BME280;48703;51.248;-0.546;2023-10-13T12:32:07;99478;;;18.26;100.00
62632;BME280;48703;51.248;-0.546;2023-10-13T12:35:09;99474;;;18.26;100.00
62632;BME280;48703;51.248;-0.546;2023-10-13T12:38:11;99477;;;18.26;100.00
62632;BME280;48703;51.248;-0.546;2023-10-13T12:41:13;99467;;;18.26;100.00
62632;BME280;48703;51.248;-0.546;2023-10-13T12:44:16;99455;;;18.25;100.00
62632;BME280;48703;51.248;-0.546;2023-10-13T12:47:18;99453;;;18.24;100.00
62632;BME280;48703;51.248;-0.546;2023-10-13T12:50:20;99455;;;18.29;100.00
62632;BME280;48703;51.248;-0.546;2023-10-13T12:53:22;99449;;;18.29;100.00
62632;BME280;48703;51.248;-0.546;2023-10-13T12:56:24;99443;;;18.35;100.00
62632;BME280;48703;51.248;-0.546;2023-10-13T12:59:26;99442;;;18.35;100.00
62632;BME280;48703;51.248;-0.546;2023-10-13T13:02:28;99442;;;18.36;100.00
62632;BME280;48703;51.248;-0.546;2023-10-13T13:05:30;99435;;;18.33;100.00
62632;BME280;48703;51.248;-0.546;2023-10-13T13:08:32;99426;;;18.34;100.00
62632;BME280;48703;51.248;-0.546;2023-10-13T13:11:34;99423;;;18.37;100.00
62632;BME280;48703;51.248;-0.546;2023-10-13T13:14:36;99421;;;18.41;100.00
62632;BME280;48703;51.248;-0.546;2023-10-13T13:17:38;99417;;;18.42;100.00
62632;BME280;48703;51.248;-0.546;2023-10-13T13:20:40;99419;;;18.42;99.95
62632;BME280;48703;51.248;-0.546;2023-10-13T13:23:42;99421;;;18.45;100.00
62632;BME280;48703;51.248;-0.546;2023-10-13T13:26:44;99417;;;18.46;99.88
62632;BME280;48703;51.248;-0.546;2023-10-13T13:29:46;99412;;;18.47;99.70
62632;BME280;48703;51.248;-0.546;2023-10-13T13:32:48;99417;;;18.52;99.99
62632;BME280;48703;51.248;-0.546;2023-10-13T13:35:53;99419;;;18.54;99.15
62632;BME280;48703;51.248;-0.546;2023-10-13T13:38:53;99419;;;18.53;99.36
62632;BME280;48703;51.248;-0.546;2023-10-13T13:41:55;99404;;;18.52;100.00
62632;BME280;48703;51.248;-0.546;2023-10-13T13:44:57;99402;;;18.53;99.91
62632;BME280;48703;51.248;-0.546;2023-10-13T13:47:59;99405;;;18.51;98.91
62632;BME280;48703;51.248;-0.546;2023-10-13T13:51:03;99404;;;18.48;99.41
62632;BME280;48703;51.248;-0.546;2023-10-13T13:54:03;99397;;;18.49;99.18
62632;BME280;48703;51.248;-0.546;2023-10-13T13:57:05;99389;;;18.46;98.64
62632;BME280;48703;51.248;-0.546;2023-10-13T14:00:07;99389;;;18.43;98.70
62632;BME280;48703;51.248;-0.546;2023-10-13T14:03:09;99380;;;18.44;97.85
62632;BME280;48703;51.248;-0.546;2023-10-13T14:06:11;99374;;;18.46;97.81
62632;BME280;48703;51.248;-0.546;2023-10-13T14:09:13;99365;;;18.49;97.98
62632;BME280;48703;51.248;-0.546;2023-10-13T14:12:15;99368;;;18.54;98.33
62632;BME280;48703;51.248;-0.546;2023-10-13T14:15:17;99366;;;18.56;98.09
62632;BME280;48703;51.248;-0.546;2023-10-13T14:18:19;99370;;;18.62;98.13
62632;BME280;48703;51.248;-0.546;2023-10-13T14:21:21;99371;;;18.65;98.08
62632;BME280;48703;51.248;-0.546;2023-10-13T14:24:23;99369;;;18.63;97.86
62632;BME280;48703;51.248;-0.546;2023-10-13T14:27:25;99363;;;18.62;97.96
62632;BME280;48703;51.248;-0.546;2023-10-13T14:30:27;99364;;;18.61;97.39
62632;BME280;48703;51.248;-0.546;2023-10-13T14:33:29;99367;;;18.56;96.49
62632;BME280;48703;51.248;-0.546;2023-10-13T14:36:31;99359;;;18.57;96.82
62632;BME280;48703;51.248;-0.546;2023-10-13T14:39:34;99360;;;18.56;96.16
62632;BME280;48703;51.248;-0.546;2023-10-13T14:42:36;99356;;;18.54;96.59
62632;BME280;48703;51.248;-0.546;2023-10-13T14:45:38;99356;;;18.55;96.12
62632;BME280;48703;51.248;-0.546;2023-10-13T14:48:40;99348;;;18.54;95.90
62632;BME280;48703;51.248;-0.546;2023-10-13T14:51:42;99346;;;18.49;95.87
62632;BME280;48703;51.248;-0.546;2023-10-13T14:54:44;99338;;;18.45;95.43
62632;BME280;48703;51.248;-0.546;2023-10-13T14:57:46;99334;;;18.41;95.85
62632;BME280;48703;51.248;-0.546;2023-10-13T15:00:48;99319;;;18.38;96.65
62632;BME280;48703;51.248;-0.546;2023-10-13T15:03:50;99324;;;18.43;96.85
62632;BME280;48703;51.248;-0.546;2023-10-13T15:06:52;99313;;;18.48;96.50
62632;BME280;48703;51.248;-0.546;2023-10-13T15:09:54;99299;;;18.55;95.97
62632;BME280;48703;51.248;-0.546;2023-10-13T15:12:56;99311;;;18.59;95.57
62632;BME280;48703;51.248;-0.546;2023-10-13T15:15:58;99314;;;18.61;94.49
62632;BME280;48703;51.248;-0.546;2023-10-13T15:19:00;99312;;;18.57;94.97
62632;BME280;48703;51.248;-0.546;2023-10-13T15:22:02;99308;;;18.55;95.10
62632;BME280;48703;51.248;-0.546;2023-10-13T15:25:05;99304;;;18.49;94.88
62632;BME280;48703;51.248;-0.546;2023-10-13T15:28:06;99295;;;18.41;95.42
62632;BME280;48703;51.248;-0.546;2023-10-13T15:31:11;99287;;;18.36;95.41
62632;BME280;48703;51.248;-0.546;2023-10-13T15:34:12;99291;;;18.36;95.61
62632;BME280;48703;51.248;-0.546;2023-10-13T15:37:13;99292;;;18.32;94.73
62632;BME280;48703;51.248;-0.546;2023-10-13T15:40:15;99288;;;18.31;94.44
62632;BME280;48703;51.248;-0.546;2023-10-13T15:43:17;99279;;;18.33;95.50
62632;BME280;48703;51.248;-0.546;2023-10-13T15:46:19;99286;;;18.32;93.63
62632;BME280;48703;51.248;-0.546;2023-10-13T15:49:21;99289;;;18.29;94.19
62632;BME280;48703;51.248;-0.546;2023-10-13T15:52:23;99289;;;18.22;93.90
62632;BME280;48703;51.248;-0.546;2023-10-13T15:55:25;99283;;;18.17;93.84
62632;BME280;48703;51.248;-0.546;2023-10-13T15:58:27;99285;;;18.12;93.94
62632;BME280;48703;51.248;-0.546;2023-10-13T16:01:29;99288;;;18.08;94.81
62632;BME280;48703;51.248;-0.546;2023-10-13T16:04:31;99292;;;18.05;94.75
62632;BME280;48703;51.248;-0.546;2023-10-13T16:07:33;99282;;;18.01;94.49
62632;BME280;48703;51.248;-0.546;2023-10-13T16:10:35;99277;;;17.99;94.94
62632;BME280;48703;51.248;-0.546;2023-10-13T16:13:37;99281;;;17.98;94.80
62632;BME280;48703;51.248;-0.546;2023-10-13T16:16:39;99276;;;17.98;94.86
62632;BME280;48703;51.248;-0.546;2023-10-13T16:19:41;99287;;;17.95;95.44